Time;durP1;ratioP1;P1;durP2;ratioP2;P2;SDS_P1;SDS_P2;PMS_P1;PMS_P2;Temp;Humidity;BMP_temperature;BMP_pressure;BME280_temperature;BME280_humidity;BME280_pressure;Samples;Min_cycle;Max_cycle;Signal;HPM_P1;HPM_P2
2021/10/02 00:34:44;;;;;;;5.10;4.55;;;13.30;97.40;;;;;;4997908;28;20221;-80
2021/10/02 00:37:38;;;;;;;7.18;5.22;;;13.30;97.70;;;;;;4999830;28;20243;-82
2021/10/02 00:46:19;;;;;;;9.30;5.20;;;13.30;98.00;;;;;;4999411;28;20213;-82
2021/10/02 00:48:46;;;;;;;6.00;4.88;;;13.40;97.60;;;;;;4991964;28;20251;-81
2021/10/02 00:51:24;;;;;;;8.57;5.57;;;13.40;97.60;;;;;;4999314;28;20215;-82
2021/10/02 00:54:12;;;;;;;7.18;5.55;;;13.30;97.80;;;;;;4999571;28;20228;-82
2021/10/02 00:56:39;;;;;;;9.85;4.90;;;13.40;98.00;;;;;;4991165;28;20213;-81
2021/10/02 00:59:08;;;;;;;7.10;5.35;;;13.40;98.10;;;;;;4999998;28;20201;-83
2021/10/02 01:01:53;;;;;;;5.63;5.03;;;13.40;97.80;;;;;;4999925;28;20185;-83
2021/10/02 01:04:33;;;;;;;5.20;4.70;;;13.40;97.50;;;;;;5000254;28;20193;-83
2021/10/02 01:07:12;;;;;;;5.30;4.80;;;13.40;97.30;;;;;;4995130;28;20264;-83
2021/10/02 01:10:08;;;;;;;8.48;4.90;;;13.30;97.00;;;;;;5034492;28;20315;-82
2021/10/02 01:13:01;;;;;;;5.60;4.72;;;13.30;96.70;;;;;;5035320;28;20212;-82
2021/10/02 01:15:39;;;;;;;5.35;4.28;;;13.40;96.30;;;;;;5035783;28;20229;-83
2021/10/02 01:18:16;;;;;;;5.53;4.90;;;13.40;96.30;;;;;;5038090;28;20227;-83
2021/10/02 01:21:18;;;;;;;8.88;4.95;;;13.40;95.60;;;;;;5030455;28;20223;-81
2021/10/02 01:23:53;;;;;;;7.20;5.40;;;13.30;95.20;;;;;;5039187;28;20199;-82
2021/10/02 01:26:48;;;;;;;6.85;4.55;;;13.40;94.80;;;;;;5038875;28;20216;-83
2021/10/02 01:29:28;;;;;;;5.25;4.63;;;13.50;94.50;;;;;;5036907;28;20224;-82
2021/10/02 01:32:05;;;;;;;7.65;5.07;;;13.50;93.70;;;;;;5038522;28;20211;-83
2021/10/02 01:34:38;;;;;;;5.32;4.82;;;13.40;93.30;;;;;;5038371;28;20204;-82
2021/10/02 01:37:17;;;;;;;5.82;3.97;;;13.50;93.10;;;;;;5037534;28;20228;-82
2021/10/02 01:48:09;;;;;;;5.55;4.13;;;13.60;91.80;;;;;;5032548;28;20230;-81
2021/10/02 01:50:39;;;;;;;4.43;4.00;;;13.60;91.00;;;;;;5031646;28;20277;-81
2021/10/02 01:53:08;;;;;;;7.32;4.38;;;13.70;90.20;;;;;;5031853;28;20648;-81
2021/10/02 01:55:38;;;;;;;5.80;4.30;;;13.70;88.80;;;;;;5031470;28;20259;-82
2021/10/02 01:58:08;;;;;;;5.20;4.35;;;13.70;88.10;;;;;;5031745;28;20220;-82
2021/10/02 02:00:42;;;;;;;3.88;3.45;;;13.70;88.10;;;;;;5032264;28;20242;-81
2021/10/02 02:03:14;;;;;;;4.68;4.28;;;13.60;88.00;;;;;;5034647;28;20191;-82
2021/10/02 02:05:46;;;;;;;4.05;3.65;;;13.70;87.20;;;;;;5035487;28;20255;-82
2021/10/02 02:08:15;;;;;;;4.25;3.65;;;13.60;86.20;;;;;;5035128;28;20245;-82
2021/10/02 02:10:44;;;;;;;5.53;3.90;;;13.60;86.40;;;;;;5034188;28;20734;-82
2021/10/02 02:13:13;;;;;;;5.53;3.67;;;13.60;86.40;;;;;;5038387;28;20192;-81
2021/10/02 02:15:43;;;;;;;3.90;3.50;;;13.60;85.80;;;;;;5038211;28;20223;-81
2021/10/02 02:18:13;;;;;;;3.83;3.40;;;13.60;85.10;;;;;;5036366;28;20201;-82
2021/10/02 02:20:42;;;;;;;4.15;3.75;;;13.50;84.90;;;;;;5038020;28;20244;-81
2021/10/02 02:23:11;;;;;;;3.78;3.30;;;13.50;85.20;;;;;;5035398;28;20232;-83
2021/10/02 02:25:39;;;;;;;4.03;3.65;;;13.50;85.50;;;;;;5028864;28;20231;-82
2021/10/02 02:28:08;;;;;;;6.47;3.70;;;13.40;85.80;;;;;;5028429;28;20268;-83
2021/10/02 02:30:36;;;;;;;6.72;3.60;;;13.40;87.20;;;;;;5030501;28;20606;-82
2021/10/02 02:33:05;;;;;;;6.25;3.95;;;13.30;87.70;;;;;;5038578;28;20204;-81
2021/10/02 02:35:33;;;;;;;7.28;3.20;;;13.30;87.70;;;;;;5038249;28;20231;-82
2021/10/02 02:38:01;;;;;;;6.15;3.40;;;13.30;87.70;;;;;;5037731;28;20231;-81
2021/10/02 02:40:28;;;;;;;4.78;3.38;;;13.30;87.70;;;;;;5037217;28;20223;-82
2021/10/02 02:43:05;;;;;;;5.75;3.90;;;13.30;87.70;;;;;;5037421;28;20206;-82
2021/10/02 02:45:33;;;;;;;4.97;3.55;;;13.20;87.60;;;;;;5035555;28;20219;-83
2021/10/02 02:48:05;;;;;;;4.82;3.47;;;13.20;87.60;;;;;;5029738;28;20276;-84
2021/10/02 02:50:40;;;;;;;4.90;3.70;;;13.10;87.50;;;;;;5030772;28;20216;-83
2021/10/02 02:53:11;;;;;;;3.28;3.00;;;13.10;87.50;;;;;;5036740;28;20187;-83
2021/10/02 02:55:45;;;;;;;3.45;3.00;;;13.00;87.40;;;;;;5027249;28;20231;-82
2021/10/02 02:58:13;;;;;;;5.88;3.25;;;13.00;87.40;;;;;;5025323;28;20216;-82
2021/10/02 03:00:52;;;;;;;5.05;3.40;;;13.00;88.10;;;;;;5018087;28;20216;-83
2021/10/02 03:03:26;;;;;;;4.30;3.35;;;13.00;88.80;;;;;;5024079;28;20207;-83
2021/10/02 03:05:54;;;;;;;5.20;3.00;;;13.00;88.90;;;;;;5022459;28;20279;-81
2021/10/02 03:08:22;;;;;;;3.58;2.72;;;13.00;88.60;;;;;;5028053;28;20205;-83
2021/10/02 03:10:53;;;;;;;3.78;3.38;;;13.00;88.80;;;;;;5020908;28;20717;-83
2021/10/02 03:13:25;;;;;;;4.00;2.95;;;13.00;87.60;;;;;;5034698;28;20189;-81
2021/10/02 03:15:52;;;;;;;5.38;2.90;;;13.00;88.20;;;;;;5037921;28;20209;-81
2021/10/02 03:18:36;;;;;;;2.95;2.70;;;13.00;88.40;;;;;;5037362;28;20189;-83
2021/10/02 03:21:03;;;;;;;4.88;3.17;;;13.00;88.10;;;;;;5036677;28;20259;-81
2021/10/02 03:23:31;;;;;;;3.70;3.40;;;13.00;87.40;;;;;;5036987;28;20186;-80
2021/10/02 03:25:59;;;;;;;3.00;2.75;;;13.00;87.80;;;;;;5032305;28;20224;-82
2021/10/02 03:28:29;;;;;;;6.05;3.80;;;13.00;89.40;;;;;;5027925;28;20212;-83
2021/10/02 03:30:57;;;;;;;3.40;3.10;;;12.90;90.00;;;;;;5023889;28;20207;-82
2021/10/02 03:33:26;;;;;;;5.35;3.47;;;12.90;90.20;;;;;;5024138;28;20208;-82
2021/10/02 03:35:58;;;;;;;4.28;2.90;;;12.80;90.60;;;;;;5024924;28;20290;-83
2021/10/02 03:38:25;;;;;;;4.10;3.00;;;12.80;90.70;;;;;;5034066;28;20192;-82
2021/10/02 03:40:58;;;;;;;4.03;2.88;;;12.80;90.90;;;;;;5037476;28;20262;-83
2021/10/02 03:43:29;;;;;;;4.38;3.00;;;12.80;90.60;;;;;;5017671;28;20196;-82
2021/10/02 03:45:56;;;;;;;3.95;3.55;;;12.70;91.30;;;;;;5017855;28;20208;-82
2021/10/02 03:48:25;;;;;;;3.60;2.97;;;12.80;91.50;;;;;;5017730;28;20256;-81
2021/10/02 03:50:53;;;;;;;4.03;3.20;;;12.90;91.40;;;;;;5014033;28;20278;-84
2021/10/02 03:53:20;;;;;;;5.50;2.47;;;12.90;91.30;;;;;;5028777;28;20267;-82
2021/10/02 03:55:48;;;;;;;5.75;2.85;;;12.90;91.40;;;;;;5030369;28;20243;-82
2021/10/02 03:58:15;;;;;;;4.72;3.55;;;12.90;91.80;;;;;;5029982;28;20209;-82
2021/10/02 04:00:42;;;;;;;4.43;3.38;;;12.90;92.00;;;;;;5024905;28;20224;-83
2021/10/02 04:03:09;;;;;;;3.67;3.00;;;12.90;92.00;;;;;;5030716;28;20200;-82
2021/10/02 04:05:38;;;;;;;4.97;2.95;;;12.90;91.80;;;;;;5037326;28;20228;-82
2021/10/02 04:08:05;;;;;;;3.15;2.70;;;12.90;92.00;;;;;;5038340;28;20215;-80
2021/10/02 04:10:35;;;;;;;5.45;2.97;;;12.90;91.80;;;;;;5037984;28;20216;-82
2021/10/02 04:13:02;;;;;;;2.63;2.42;;;12.90;91.10;;;;;;5036485;28;20344;-81
2021/10/02 04:15:31;;;;;;;3.63;2.92;;;12.90;90.70;;;;;;5033416;28;20224;-82
2021/10/02 04:17:58;;;;;;;4.15;3.20;;;12.90;90.50;;;;;;5040199;28;20203;-81
2021/10/02 04:20:26;;;;;;;3.33;3.03;;;12.90;90.60;;;;;;5040148;28;20253;-82
2021/10/02 04:22:56;;;;;;;2.92;2.60;;;12.90;90.50;;;;;;5041004;28;20204;-81
2021/10/02 04:25:23;;;;;;;3.20;2.47;;;12.90;90.20;;;;;;5040519;28;20228;-81
2021/10/02 04:27:50;;;;;;;5.65;2.65;;;12.90;90.00;;;;;;5025939;28;20690;-81
2021/10/02 04:30:17;;;;;;;4.95;3.05;;;12.90;90.00;;;;;;5022566;28;20228;-81
2021/10/02 04:32:47;;;;;;;4.22;2.72;;;12.90;90.40;;;;;;5028564;28;20204;-82
2021/10/02 04:35:18;;;;;;;2.60;2.40;;;12.90;90.00;;;;;;5028833;28;20209;-83
2021/10/02 04:37:48;;;;;;;3.25;2.58;;;12.80;90.50;;;;;;5022171;28;20596;-82
2021/10/02 04:40:16;;;;;;;5.07;2.95;;;12.80;90.50;;;;;;5028971;28;20212;-82
2021/10/02 04:42:43;;;;;;;3.17;2.88;;;12.80;90.90;;;;;;5026531;28;20239;-82
2021/10/02 04:45:10;;;;;;;4.10;2.53;;;12.80;90.60;;;;;;5031082;28;20239;-81
2021/10/02 04:47:37;;;;;;;2.53;2.33;;;12.80;90.60;;;;;;5031904;28;20220;-83
2021/10/02 04:50:06;;;;;;;3.67;2.95;;;12.80;90.40;;;;;;5029519;28;20240;-84
2021/10/02 04:52:33;;;;;;;2.65;2.45;;;12.80;90.00;;;;;;5030164;28;20208;-82
2021/10/02 04:55:00;;;;;;;2.78;2.47;;;12.70;90.00;;;;;;5013313;28;20208;-81
2021/10/02 04:57:28;;;;;;;3.33;2.90;;;12.70;90.50;;;;;;5017956;28;20245;-82
2021/10/02 04:59:55;;;;;;;3.30;2.30;;;12.60;90.10;;;;;;5031303;28;20224;-83
2021/10/02 05:02:22;;;;;;;4.00;2.80;;;12.40;90.50;;;;;;5028283;28;20207;-83
2021/10/02 05:04:49;;;;;;;2.42;2.13;;;12.40;91.60;;;;;;5030192;28;20207;-83
2021/10/02 05:07:17;;;;;;;4.82;2.78;;;12.40;91.70;;;;;;5031803;28;20228;-82
2021/10/02 05:09:44;;;;;;;3.78;2.55;;;12.30;91.50;;;;;;5028376;28;20641;-83
2021/10/02 05:12:11;;;;;;;4.45;2.70;;;12.30;91.60;;;;;;5027595;28;20204;-82
2021/10/02 05:14:40;;;;;;;3.53;3.15;;;12.20;92.20;;;;;;5030169;28;20216;-81
2021/10/02 05:17:11;;;;;;;3.00;2.65;;;12.20;92.20;;;;;;5030157;28;20224;-84
2021/10/02 05:19:38;;;;;;;4.63;3.15;;;12.20;92.20;;;;;;5030842;28;20208;-82
2021/10/02 05:22:07;;;;;;;4.65;3.30;;;12.20;92.40;;;;;;5030809;28;20199;-84
2021/10/02 05:24:36;;;;;;;4.28;2.95;;;12.20;92.80;;;;;;5029912;28;20215;-82
2021/10/02 05:27:06;;;;;;;4.07;2.40;;;12.20;93.00;;;;;;5035206;28;20232;-83
2021/10/02 05:29:34;;;;;;;3.88;3.15;;;12.20;93.10;;;;;;5039270;28;20207;-82
2021/10/02 05:32:04;;;;;;;8.13;2.92;;;12.10;93.50;;;;;;5039321;28;20272;-81
2021/10/02 05:34:32;;;;;;;9.10;3.10;;;12.10;93.80;;;;;;5033638;28;20200;-82
2021/10/02 05:36:59;;;;;;;7.82;3.03;;;12.10;94.00;;;;;;5025844;28;20299;-82
2021/10/02 05:39:26;;;;;;;5.55;3.75;;;12.10;94.00;;;;;;5027518;28;20207;-83
2021/10/02 05:41:55;;;;;;;4.57;3.65;;;12.10;94.00;;;;;;5033560;28;20263;-83
2021/10/02 05:44:21;;;;;;;7.15;4.00;;;12.10;94.00;;;;;;5034996;28;20238;-83
2021/10/02 05:46:49;;;;;;;4.80;3.75;;;12.10;94.30;;;;;;5034002;28;20290;-82
2021/10/02 05:49:17;;;;;;;5.35;3.50;;;12.10;94.40;;;;;;5031179;28;20652;-83
2021/10/02 05:51:44;;;;;;;4.38;3.03;;;12.10;94.40;;;;;;5026603;28;20718;-82
2021/10/02 05:54:11;;;;;;;4.55;3.45;;;12.10;94.70;;;;;;5027161;28;20208;-82
2021/10/02 05:56:38;;;;;;;5.13;2.95;;;12.10;95.50;;;;;;5027521;28;20233;-83
2021/10/02 05:59:06;;;;;;;8.65;3.30;;;12.10;95.80;;;;;;5026763;28;20698;-82
2021/10/02 06:01:33;;;;;;;5.55;3.40;;;12.10;96.10;;;;;;5028779;28;20227;-83
2021/10/02 06:04:00;;;;;;;4.05;3.28;;;12.10;96.60;;;;;;5029427;28;20202;-83
2021/10/02 06:06:28;;;;;;;3.90;2.90;;;12.20;97.00;;;;;;5028227;28;20238;-83
2021/10/02 06:08:56;;;;;;;4.60;3.63;;;12.20;97.10;;;;;;5027941;28;20247;-82
2021/10/02 06:11:23;;;;;;;3.53;3.22;;;12.30;97.00;;;;;;5028247;28;20239;-81
2021/10/02 06:13:54;;;;;;;5.70;3.95;;;12.30;96.90;;;;;;5031226;28;20307;-83
2021/10/02 06:16:24;;;;;;;4.55;3.40;;;12.30;96.50;;;;;;5030874;28;20224;-83
2021/10/02 06:18:59;;;;;;;5.03;3.97;;;12.30;96.60;;;;;;5030716;28;20207;-82
2021/10/02 06:21:28;;;;;;;4.88;3.75;;;12.40;96.60;;;;;;5031479;28;20235;-83
2021/10/02 06:23:58;;;;;;;5.22;3.55;;;12.50;96.20;;;;;;5033281;28;20218;-83
2021/10/02 06:26:25;;;;;;;6.40;3.28;;;12.60;95.60;;;;;;5032010;28;20336;-83
2021/10/02 06:28:52;;;;;;;4.40;3.90;;;12.60;95.40;;;;;;5034080;28;20217;-82
2021/10/02 06:31:19;;;;;;;3.80;3.42;;;12.70;95.40;;;;;;5035934;28;20224;-82
2021/10/02 06:33:46;;;;;;;3.80;3.22;;;12.80;94.90;;;;;;5037547;28;20199;-82
2021/10/02 06:39:51;;;;;;;3.45;3.15;;;13.00;93.50;;;;;;5012730;28;20208;-84
2021/10/02 06:42:45;;;;;;;4.72;3.60;;;13.10;92.40;;;;;;5033604;28;20201;-83
2021/10/02 06:45:12;;;;;;;5.47;3.60;;;13.10;91.40;;;;;;5028203;28;20213;-82
2021/10/02 06:47:39;;;;;;;5.93;3.25;;;13.10;90.90;;;;;;5033338;28;20211;-84
2021/10/02 06:50:07;;;;;;;6.28;3.72;;;13.10;91.00;;;;;;5032989;28;20288;-82
2021/10/02 06:52:36;;;;;;;7.22;4.10;;;13.20;90.80;;;;;;5032326;28;20203;-82
2021/10/02 06:55:06;;;;;;;24.95;6.05;;;13.10;90.00;;;;;;5033272;28;20316;-82
2021/10/02 06:57:34;;;;;;;7.18;4.40;;;13.10;90.00;;;;;;5030938;28;20219;-83
2021/10/02 07:00:02;;;;;;;15.60;6.22;;;13.20;90.10;;;;;;5026664;28;20343;-82
2021/10/02 07:02:29;;;;;;;40.42;9.00;;;13.20;90.00;;;;;;5028276;28;20211;-83
2021/10/02 07:04:58;;;;;;;112.15;19.40;;;13.10;90.30;;;;;;5034679;28;20207;-82
2021/10/02 07:07:25;;;;;;;24.90;6.15;;;13.20;90.80;;;;;;5025125;28;20316;-82
2021/10/02 07:09:53;;;;;;;113.60;14.10;;;13.30;90.50;;;;;;5025299;28;20320;-83
2021/10/02 07:12:20;;;;;;;47.90;8.90;;;13.30;90.00;;;;;;5024876;28;20208;-82
2021/10/02 07:14:47;;;;;;;258.70;26.05;;;13.40;87.80;;;;;;5025199;28;20284;-81
2021/10/02 07:17:14;;;;;;;341.85;33.35;;;13.60;88.00;;;;;;5026088;28;20231;-82
2021/10/02 07:19:41;;;;;;;453.08;44.38;;;13.70;85.80;;;;;;5025114;28;20212;-81
2021/10/02 07:22:09;;;;;;;109.75;14.82;;;13.70;83.90;;;;;;5029925;28;20220;-83
2021/10/02 07:24:36;;;;;;;45.97;7.93;;;13.80;83.20;;;;;;5026757;28;20195;-81
2021/10/02 07:27:05;;;;;;;38.50;6.70;;;14.00;81.10;;;;;;5032584;28;20369;-82
2021/10/02 07:29:32;;;;;;;9.38;4.15;;;14.00;79.90;;;;;;5033666;28;20577;-82
2021/10/02 07:31:59;;;;;;;36.05;7.40;;;14.20;80.10;;;;;;5024476;28;20216;-81
2021/10/02 07:34:31;;;;;;;202.18;21.13;;;14.30;77.30;;;;;;5023446;28;20200;-83
2021/10/02 07:36:59;;;;;;;29.92;6.15;;;14.30;76.60;;;;;;5025683;28;20229;-83
2021/10/02 07:39:30;;;;;;;7.60;4.20;;;14.50;76.80;;;;;;5024836;28;20560;-82
2021/10/02 07:41:58;;;;;;;98.35;12.80;;;14.60;74.10;;;;;;5035254;28;20265;-82
2021/10/02 07:44:30;;;;;;;14.53;4.67;;;14.70;73.10;;;;;;5036798;28;20272;-84
2021/10/02 07:47:03;;;;;;;12.60;5.20;;;14.90;72.00;;;;;;5036158;28;20462;-82
2021/10/02 07:49:38;;;;;;;8.10;4.10;;;15.10;70.80;;;;;;5030067;28;20480;-82
2021/10/02 07:52:06;;;;;;;8.15;3.55;;;15.20;68.80;;;;;;5025168;28;20454;-82
2021/10/02 07:54:34;;;;;;;4.90;3.50;;;15.40;68.50;;;;;;5028497;28;20261;-82
2021/10/02 07:57:02;;;;;;;3.83;3.30;;;15.60;67.30;;;;;;5027874;28;20484;-82
2021/10/02 07:59:31;;;;;;;6.00;4.30;;;15.80;66.40;;;;;;5027203;28;20756;-83
2021/10/02 08:02:00;;;;;;;5.47;3.50;;;15.80;64.00;;;;;;5027580;28;20450;-84
2021/10/02 08:04:28;;;;;;;5.73;3.90;;;15.90;64.10;;;;;;5027440;28;20459;-83
2021/10/02 08:06:58;;;;;;;5.73;3.53;;;16.00;63.10;;;;;;5028913;28;20549;-81
2021/10/02 08:09:34;;;;;;;6.27;3.50;;;16.20;62.30;;;;;;5029383;28;20493;-81
2021/10/02 08:12:01;;;;;;;4.80;2.87;;;16.40;61.30;;;;;;5024169;28;20486;-80
2021/10/02 08:14:35;;;;;;;6.73;3.37;;;16.60;60.10;;;;;;5026478;28;20421;-81
2021/10/02 08:17:03;;;;;;;4.30;3.50;;;16.70;58.40;;;;;;5024144;28;20546;-82
2021/10/02 08:19:35;;;;;;;3.03;2.73;;;16.80;57.60;;;;;;5029100;28;20465;-81
2021/10/02 08:22:06;;;;;;;20.20;6.07;;;17.00;56.90;;;;;;5026739;28;20956;-82
2021/10/02 08:24:35;;;;;;;4.10;3.13;;;17.00;55.80;;;;;;5024592;28;20485;-79
2021/10/02 08:27:03;;;;;;;8.83;3.20;;;17.00;55.80;;;;;;5017918;28;20517;-79
2021/10/02 08:29:31;;;;;;;3.53;2.93;;;17.00;55.80;;;;;;5017700;28;20463;-78
2021/10/02 08:32:00;;;;;;;5.80;3.60;;;17.10;55.90;;;;;;5017432;28;20498;-79
2021/10/02 08:34:28;;;;;;;8.37;3.90;;;17.20;56.00;;;;;;5018237;28;20458;-79
2021/10/02 08:36:55;;;;;;;5.10;3.70;;;17.30;56.10;;;;;;5019704;28;20481;-80
2021/10/02 08:39:22;;;;;;;4.03;3.70;;;17.40;54.20;;;;;;5031509;28;20429;-79
2021/10/02 08:41:51;;;;;;;6.20;4.03;;;17.30;54.30;;;;;;5031010;28;20454;-79
2021/10/02 08:44:19;;;;;;;4.67;3.43;;;17.50;54.20;;;;;;5025802;28;20576;-80
2021/10/02 08:46:47;;;;;;;5.10;3.37;;;17.50;51.90;;;;;;5024851;28;20482;-79
2021/10/02 08:49:44;;;;;;;3.20;2.90;;;17.50;51.90;;;;;;5026227;28;20802;-80
2021/10/02 08:52:12;;;;;;;3.37;3.00;;;17.50;52.00;;;;;;5026585;28;20468;-78
2021/10/02 08:54:40;;;;;;;3.47;2.70;;;17.60;52.90;;;;;;5023363;28;20429;-79
2021/10/02 08:57:10;;;;;;;5.53;3.30;;;17.70;51.60;;;;;;5026403;28;20449;-79
2021/10/02 08:59:40;;;;;;;11.30;3.50;;;17.70;50.80;;;;;;5025805;28;20462;-78
2021/10/02 09:02:09;;;;;;;5.50;3.40;;;17.80;51.90;;;;;;5027028;28;20451;-75
2021/10/02 09:04:38;;;;;;;4.43;3.10;;;18.00;51.90;;;;;;5024097;28;20449;-80
2021/10/02 09:07:06;;;;;;;4.40;2.73;;;18.20;50.40;;;;;;5025477;28;20851;-81
2021/10/02 09:09:34;;;;;;;9.63;3.10;;;18.20;50.50;;;;;;5026218;28;20425;-81
2021/10/02 09:12:03;;;;;;;3.10;2.80;;;18.10;49.70;;;;;;5026241;28;20453;-81
2021/10/02 09:14:30;;;;;;;6.47;2.87;;;18.20;49.80;;;;;;5028425;28;20463;-80
2021/10/02 09:17:11;;;;;;;6.73;2.67;;;18.30;49.30;;;;;;5026615;28;20558;-82
2021/10/02 09:19:39;;;;;;;13.40;3.67;;;18.40;48.70;;;;;;5028060;28;20759;-82
2021/10/02 09:22:08;;;;;;;4.90;2.93;;;18.50;47.50;;;;;;5030239;28;20471;-81
2021/10/02 09:24:37;;;;;;;6.30;3.27;;;18.50;47.80;;;;;;5030106;28;20442;-81
2021/10/02 09:27:14;;;;;;;18.53;4.03;;;18.50;48.40;;;;;;5029868;28;20957;-82
2021/10/02 09:29:45;;;;;;;6.23;3.00;;;18.30;47.30;;;;;;5035666;28;20418;-80
2021/10/02 09:32:14;;;;;;;4.43;2.73;;;18.40;48.40;;;;;;5029364;28;20456;-81
2021/10/02 09:34:51;;;;;;;3.37;3.07;;;18.60;47.60;;;;;;5024992;28;20484;-84
2021/10/02 09:37:25;;;;;;;3.50;2.30;;;18.70;47.60;;;;;;5027162;28;20489;-81
2021/10/02 09:39:56;;;;;;;3.00;2.70;;;18.80;47.70;;;;;;5031166;28;20498;-82
2021/10/02 09:42:33;;;;;;;6.40;2.70;;;19.00;47.90;;;;;;5028390;28;20408;-81
2021/10/02 09:45:03;;;;;;;4.90;2.50;;;19.00;47.90;;;;;;5027441;28;20421;-81
2021/10/02 09:47:31;;;;;;;5.23;2.60;;;19.00;47.70;;;;;;5032336;28;20374;-81
2021/10/02 09:49:59;;;;;;;7.30;2.70;;;19.10;47.70;;;;;;5028763;28;20457;-83
2021/10/02 09:52:38;;;;;;;3.93;2.37;;;19.20;47.10;;;;;;5031944;28;20481;-82
2021/10/02 09:55:31;;;;;;;2.50;2.20;;;19.30;46.10;;;;;;5036362;28;20458;-79
2021/10/02 09:58:04;;;;;;;3.83;2.40;;;19.40;45.60;;;;;;5038760;28;20430;-83
2021/10/02 10:00:36;;;;;;;3.40;2.23;;;19.50;44.90;;;;;;5039374;28;20428;-83
2021/10/02 10:03:05;;;;;;;4.70;2.30;;;19.70;44.00;;;;;;5036638;28;20454;-83
2021/10/02 10:05:36;;;;;;;3.97;2.50;;;19.80;44.30;;;;;;5031820;28;20477;-82
2021/10/02 10:08:07;;;;;;;5.03;2.40;;;19.80;44.00;;;;;;5039081;28;20434;-84
2021/10/02 10:10:36;;;;;;;3.53;2.90;;;19.90;43.10;;;;;;5038121;28;20464;-80
2021/10/02 10:13:05;;;;;;;2.67;2.27;;;20.00;43.40;;;;;;5037720;28;20465;-81
2021/10/02 10:15:37;;;;;;;2.00;1.83;;;20.00;42.20;;;;;;5032110;28;20496;-80
2021/10/02 10:18:05;;;;;;;4.80;2.10;;;19.90;42.80;;;;;;5027132;28;20450;-82
2021/10/02 10:20:37;;;;;;;2.83;2.00;;;20.00;41.40;;;;;;5025645;28;20593;-81
2021/10/02 10:23:06;;;;;;;2.40;2.20;;;20.20;41.30;;;;;;5007917;28;20449;-81
2021/10/02 10:25:33;;;;;;;4.00;2.53;;;20.30;41.20;;;;;;5025249;28;20449;-82
2021/10/02 10:28:05;;;;;;;3.73;2.60;;;20.50;40.90;;;;;;5025556;28;20477;-82
2021/10/02 10:30:36;;;;;;;2.53;2.33;;;20.60;39.40;;;;;;5024968;28;20470;-82
2021/10/02 10:33:08;;;;;;;2.93;2.23;;;20.60;39.40;;;;;;5025293;28;20459;-80
2021/10/02 10:35:39;;;;;;;3.20;2.63;;;20.70;39.50;;;;;;5023929;28;20496;-80
2021/10/02 10:38:16;;;;;;;2.90;2.57;;;20.90;39.60;;;;;;5026865;28;20402;-82
2021/10/02 10:40:44;;;;;;;3.00;2.60;;;21.10;39.80;;;;;;5028262;28;20828;-82
2021/10/02 10:43:14;;;;;;;3.00;2.70;;;21.20;39.10;;;;;;5027676;28;20447;-84
2021/10/02 10:45:44;;;;;;;2.20;2.00;;;21.30;39.50;;;;;;5026879;28;20433;-80
2021/10/02 10:48:12;;;;;;;4.13;2.57;;;21.70;38.50;;;;;;5025719;28;20470;-82
2021/10/02 10:50:52;;;;;;;2.97;2.67;;;21.80;38.20;;;;;;5025047;28;20603;-80
2021/10/02 10:53:26;;;;;;;4.47;1.97;;;22.00;37.60;;;;;;5028250;28;20437;-80
2021/10/02 10:55:58;;;;;;;2.47;2.20;;;22.10;36.80;;;;;;5027774;28;20466;-81
2021/10/02 10:58:27;;;;;;;4.13;2.80;;;22.00;36.70;;;;;;5021913;28;20429;-82
2021/10/02 11:00:56;;;;;;;3.10;2.50;;;22.00;36.00;;;;;;5023977;28;20480;-82
2021/10/02 11:03:38;;;;;;;2.93;2.60;;;21.90;35.10;;;;;;5021813;28;20474;-82
2021/10/02 11:06:07;;;;;;;3.70;2.90;;;22.10;35.60;;;;;;5020407;28;20455;-80
2021/10/02 11:08:58;;;;;;;5.53;2.47;;;22.00;34.70;;;;;;5022536;28;20425;-81
2021/10/02 11:11:56;;;;;;;3.10;2.80;;;22.00;34.80;;;;;;5023798;28;20471;-77
2021/10/02 11:15:01;;;;;;;3.30;3.03;;;21.90;34.80;;;;;;5014095;28;20478;-79
2021/10/02 11:17:38;;;;;;;2.23;2.00;;;22.00;34.80;;;;;;5024856;28;20437;-78
2021/10/02 11:20:33;;;;;;;4.50;2.90;;;22.10;34.30;;;;;;5031176;28;20461;-79
2021/10/02 11:23:37;;;;;;;3.17;2.87;;;22.10;34.40;;;;;;5008260;28;20425;-79
2021/10/02 11:26:20;;;;;;;3.10;2.70;;;22.00;34.10;;;;;;5021954;28;20480;-79
2021/10/02 11:28:51;;;;;;;3.67;2.43;;;22.00;33.60;;;;;;5019774;28;20709;-78
2021/10/02 11:31:20;;;;;;;3.70;2.67;;;22.00;34.00;;;;;;5019841;28;20505;-80
2021/10/02 11:33:49;;;;;;;2.63;2.40;;;21.90;34.70;;;;;;5015131;28;20438;-79
2021/10/02 11:36:42;;;;;;;3.93;2.80;;;21.90;34.60;;;;;;5003412;28;20533;-80
2021/10/02 11:39:12;;;;;;;3.47;2.80;;;22.00;34.70;;;;;;5018076;28;20789;-79
2021/10/02 11:41:41;;;;;;;3.77;2.27;;;22.00;34.60;;;;;;5018743;28;20486;-78
2021/10/02 11:44:09;;;;;;;2.27;2.07;;;22.00;34.70;;;;;;5019044;28;20464;-78
2021/10/02 11:46:36;;;;;;;5.60;2.90;;;22.10;35.10;;;;;;5018851;28;20460;-78
2021/10/02 11:49:17;;;;;;;3.70;2.57;;;22.00;34.30;;;;;;5018825;28;20487;-79
2021/10/02 11:52:09;;;;;;;2.20;2.00;;;21.90;34.40;;;;;;5019672;28;20482;-79
2021/10/02 11:54:36;;;;;;;4.53;2.63;;;22.00;34.50;;;;;;5025086;28;20418;-79
2021/10/02 11:57:14;;;;;;;2.67;2.37;;;21.90;34.70;;;;;;5027714;28;21021;-80
2021/10/02 11:59:45;;;;;;;2.67;2.47;;;21.90;35.40;;;;;;5035419;28;20435;-78
2021/10/02 12:02:14;;;;;;;3.07;2.30;;;21.90;35.20;;;;;;5035224;28;20436;-78
2021/10/02 12:04:42;;;;;;;2.40;2.20;;;22.00;35.00;;;;;;5033901;28;20937;-79
2021/10/02 12:07:09;;;;;;;2.90;2.00;;;21.90;33.30;;;;;;5031291;28;20452;-78
2021/10/02 12:09:39;;;;;;;3.70;2.47;;;21.80;33.80;;;;;;5033022;28;20480;-79
2021/10/02 12:12:07;;;;;;;2.60;2.40;;;21.80;34.20;;;;;;5029862;28;20519;-79
2021/10/02 12:14:35;;;;;;;2.70;2.33;;;21.80;34.00;;;;;;5039742;28;20462;-77
2021/10/02 12:17:08;;;;;;;4.17;2.83;;;21.90;33.20;;;;;;5038059;28;20485;-79
2021/10/02 12:19:36;;;;;;;5.83;2.40;;;21.90;34.00;;;;;;5033259;28;20490;-78
2021/10/02 12:22:05;;;;;;;5.70;2.80;;;21.90;33.80;;;;;;5027195;28;20460;-78
2021/10/02 12:24:34;;;;;;;2.60;2.40;;;21.90;34.50;;;;;;5021151;28;20822;-79
2021/10/02 12:27:05;;;;;;;3.03;2.50;;;22.10;33.20;;;;;;5185336;23;20469;-82
2021/10/02 12:29:36;;;;;;;3.40;2.60;;;22.30;32.30;;;;;;5017591;28;20426;-83
2021/10/02 12:32:06;;;;;;;5.10;2.43;;;22.40;32.60;;;;;;5004679;28;20973;-82
2021/10/02 12:34:36;;;;;;;2.20;2.00;;;22.70;31.50;;;;;;5003218;28;20459;-81
2021/10/02 12:37:07;;;;;;;4.97;2.83;;;22.90;31.10;;;;;;5058797;28;20514;-81
2021/10/02 12:39:39;;;;;;;3.50;2.40;;;22.80;31.20;;;;;;5059886;28;20432;-81
2021/10/02 12:42:08;;;;;;;5.30;4.00;;;22.90;31.10;;;;;;5049902;28;20512;-80
2021/10/02 12:44:39;;;;;;;2.37;2.10;;;22.90;30.70;;;;;;5056203;28;20460;-82
2021/10/02 12:47:08;;;;;;;5.30;2.67;;;22.80;30.60;;;;;;5039692;28;20448;-80
2021/10/02 12:49:41;;;;;;;2.60;2.40;;;22.80;31.10;;;;;;5040839;28;20456;-82
2021/10/02 12:52:09;;;;;;;2.73;2.40;;;22.90;31.10;;;;;;5041834;28;20471;-81
2021/10/02 12:54:37;;;;;;;4.93;2.60;;;22.90;31.10;;;;;;5042157;28;20431;-81
2021/10/02 12:57:07;;;;;;;4.73;2.60;;;23.00;31.30;;;;;;5041440;28;20456;-80
2021/10/02 12:59:41;;;;;;;5.40;2.77;;;23.00;31.30;;;;;;5041165;28;20445;-81
2021/10/02 13:02:09;;;;;;;4.53;2.50;;;23.10;31.40;;;;;;5041052;28;20443;-80
2021/10/02 13:04:36;;;;;;;3.40;2.30;;;23.10;31.30;;;;;;5043401;28;20436;-81
2021/10/02 13:07:04;;;;;;;2.30;2.20;;;23.00;31.30;;;;;;5050769;28;20452;-82
2021/10/02 13:09:31;;;;;;;6.10;2.27;;;23.00;31.50;;;;;;5027293;28;20565;-79
2021/10/02 13:12:07;;;;;;;3.73;2.50;;;22.90;31.20;;;;;;5040579;28;20492;-81
2021/10/02 13:14:36;;;;;;;3.20;2.63;;;23.00;31.30;;;;;;5043251;28;20467;-81
2021/10/02 13:17:09;;;;;;;2.13;1.90;;;23.10;30.10;;;;;;5042454;28;20522;-81
2021/10/02 13:19:36;;;;;;;2.47;2.27;;;22.90;31.10;;;;;;5041072;28;20429;-81
2021/10/02 13:22:14;;;;;;;2.87;2.00;;;22.80;31.10;;;;;;5039899;28;20523;-81
2021/10/02 13:25:05;;;;;;;4.90;2.77;;;22.80;31.10;;;;;;5039079;28;20900;-82
2021/10/02 13:27:35;;;;;;;4.37;2.80;;;22.70;31.00;;;;;;5040484;28;20520;-80
2021/10/02 13:30:06;;;;;;;3.30;2.50;;;22.70;31.00;;;;;;5040237;28;20483;-81
2021/10/02 13:32:35;;;;;;;2.57;2.37;;;22.80;31.10;;;;;;5040893;28;20510;-81
2021/10/02 13:35:05;;;;;;;3.23;2.63;;;23.00;31.30;;;;;;5040950;28;20885;-81
2021/10/02 13:37:32;;;;;;;4.40;2.80;;;23.10;31.40;;;;;;5046488;28;20988;-81
2021/10/02 13:40:02;;;;;;;3.67;2.43;;;23.10;31.40;;;;;;5040642;28;20911;-81
2021/10/02 13:42:30;;;;;;;4.63;3.00;;;23.10;31.40;;;;;;5037205;28;20560;-82
2021/10/02 13:44:58;;;;;;;3.00;2.70;;;23.10;32.10;;;;;;5032451;28;20523;-81
2021/10/02 13:47:26;;;;;;;3.03;2.43;;;23.20;31.40;;;;;;5041741;28;20470;-82
2021/10/02 13:49:55;;;;;;;3.57;2.80;;;23.30;31.50;;;;;;5051405;28;20428;-80
2021/10/02 13:52:23;;;;;;;3.00;2.43;;;23.20;31.50;;;;;;5057700;28;20467;-81
2021/10/02 13:54:50;;;;;;;2.90;2.50;;;23.40;31.60;;;;;;5056475;28;20472;-82
2021/10/02 13:57:17;;;;;;;2.77;2.57;;;23.50;31.70;;;;;;5057579;28;20440;-82